• Member Statistics

    15,858
    Total Members
    7,904
    Most Online
    Waltzman
    Newest Member
    Waltzman
    Joined
weatherwiz

February 5-7 Wintry Mess Potential

Recommended Posts

Just had a gust of wind come through Simsbury and now we have a snow shower moving through. Heading home to Westfield soon, I may take the long way home and try to find some snow. Temp down to 34 after a high of 37

Share this post


Link to post
Share on other sites
1 minute ago, ineedsnow said:

Suns out and winds just started to crank

 That gust came through Simsbury about 20 minutes ago. Were getting some snow in the air lightly right now and there's a wall of dark clouds off to the West

Share this post


Link to post
Share on other sites

Temp rising here up to 38 after some sun and mixing out, lol. A whole lot of meh here all around. Ice yesterday was not enough to be really interesting or noteworthy, than a dryslot and temps rotting at 33 with fog and drizzle for hours and hours, than a warm sector and wind fail as the valley got wedged in as we watch backside snows pivot off to the NW.  

Share this post


Link to post
Share on other sites
14 minutes ago, CoastalWx said:

Now that is an RVR.

no kidding. some red flags and rounding in there, but still:

Quote

KBTV 071954Z 32016G25KT 1/4SM R15/1600V1800FT +SN FZFG VV006 M06/M07 A2897 RMK AO2 SLP814 SNINCR 2/14 P0005 T10561072
KBTV 071854Z 33017KT 1/4SM R15/1000V1400FT +SN FZFG VV004 M06/M07 A2895 RMK AO2 SLP809 SNINCR 2/13 P0005 T10561072
KBTV 071754Z 33012KT 1/4SM R15/1400V2200FT +SN FZFG VV005 M05/M07 A2895 RMK AO2 SLP807 SNINCR 2/11 4/011 P0012 60048 I6000 T10501067 11039 21050 56064 $
KBTV 071654Z 31009KT 1/4SM R15/1400V1800FT +SN FZFG VV005 M05/M07 A2900 RMK AO2 SLP825 SNINCR 2/9 P0013 T10501067 $

 

Share this post


Link to post
Share on other sites
6 minutes ago, Sugarloaf1989 said:

Did you have icing yesterday?

Yes not a ton but we did..  was driving in Westfield  yesterday  morning and they definitely  had a bit more

Share this post


Link to post
Share on other sites
1 minute ago, ineedsnow said:

Forgot to post this morning but signs of spring.. first cardinal I've  seen in awhile

20200207_085435.jpg

Lol, been seeing those for weeks here.

Share this post


Link to post
Share on other sites

There appears to be another wave just south of LI (can see it in low level WV imagery). I'll be interested to see if there is another burst of relatively higher wind gusts incoming.

Share this post


Link to post
Share on other sites
9 minutes ago, STILL N OF PIKE said:

971 mb . MSLP on edge of Cape Ann

wonder if we can snow here at end . Still some precipitation developing and 850’s crashing 

Looks like CC is crashing through Hillsborough county, but itll be a race with the back edge 

Share this post


Link to post
Share on other sites
8 minutes ago, Baroclinic Zone said:

Lol, been seeing those for weeks here.

they don't migrate 

  • Like 2

Share this post


Link to post
Share on other sites
2 minutes ago, amarshall said:

Headed to sugarloaf. They said it just turned to frozen. It was raining.

Sent from my SM-G975U using Tapatalk
 

be careful on rt 27 near the mtn. gotta be slick

Share this post


Link to post
Share on other sites

Join the conversation

You can post now and register later. If you have an account, sign in now to post with your account.

Guest
Reply to this topic...

×   Pasted as rich text.   Paste as plain text instead

  Only 75 emoji are allowed.

×   Your link has been automatically embedded.   Display as a link instead

×   Your previous content has been restored.   Clear editor

×   You cannot paste images directly. Upload or insert images from URL.

Loading...

  • Recently Browsing   0 members

    No registered users viewing this page.